Time;durP1;ratioP1;P1;durP2;ratioP2;P2;SDS_P1;SDS_P2;PMS_P1;PMS_P2;Temp;Humidity;BMP_temperature;BMP_pressure;BME280_temperature;BME280_humidity;BME280_pressure;Samples;Min_cycle;Max_cycle;Signal;HPM_P1;HPM_P2
2023/06/30 00:01:48;;;;;;;7.80;6.25;;;;;;;27.63;55.15;96354.91;5035710;28;20028;-30
2023/06/30 00:04:22;;;;;;;9.73;7.22;;;;;;;27.59;55.71;96357.28;5035624;28;20025;-31
2023/06/30 00:06:49;;;;;;;9.65;6.38;;;;;;;27.54;55.97;96365.22;5036085;28;20049;-30
2023/06/30 00:09:19;;;;;;;12.05;6.82;;;;;;;27.69;55.78;96366.69;5035838;28;20018;-30
2023/06/30 00:11:44;;;;;;;8.60;7.03;;;;;;;27.68;55.44;96365.94;5035751;28;20071;-30
2023/06/30 00:14:10;;;;;;;11.15;7.72;;;;;;;27.57;55.27;96362.66;5035518;28;20526;-30
2023/06/30 00:16:35;;;;;;;9.88;6.72;;;;;;;27.72;55.12;96366.31;5035360;28;20026;-30
2023/06/30 00:19:02;;;;;;;8.68;6.85;;;;;;;27.72;55.08;96362.78;5035363;28;20396;-30
2023/06/30 00:21:28;;;;;;;8.77;6.63;;;;;;;27.65;54.62;96369.78;5035597;28;20045;-30
2023/06/30 00:23:53;;;;;;;7.45;6.20;;;;;;;27.76;54.22;96366.75;5035294;28;20080;-30
2023/06/30 00:26:19;;;;;;;8.27;6.60;;;;;;;27.48;54.77;96366.59;5035429;28;20021;-30
2023/06/30 00:28:45;;;;;;;8.77;6.00;;;;;;;27.46;54.45;96366.41;5035247;28;20029;-30
2023/06/30 00:31:10;;;;;;;9.15;6.28;;;;;;;27.47;54.41;96356.75;5035371;28;20108;-30
2023/06/30 00:33:36;;;;;;;12.50;6.50;;;;;;;27.61;54.00;96360.25;5035293;28;20029;-30
2023/06/30 00:36:01;;;;;;;8.38;6.72;;;;;;;27.39;54.62;96358.72;5035100;28;20040;-31
2023/06/30 00:38:27;;;;;;;11.00;7.15;;;;;;;27.68;53.62;96368.72;5035773;28;20017;-30
2023/06/30 00:40:52;;;;;;;9.95;6.90;;;;;;;27.81;53.05;96357.50;5034703;28;20044;-30
2023/06/30 00:43:17;;;;;;;10.10;7.38;;;;;;;27.63;53.83;96357.69;5034970;28;20051;-30
2023/06/30 00:45:43;;;;;;;10.57;6.65;;;;;;;27.68;53.96;96362.41;5034899;28;20021;-30
2023/06/30 00:48:09;;;;;;;11.13;6.70;;;;;;;27.69;53.44;96361.84;5060790;28;20025;-30
2023/06/30 00:50:34;;;;;;;10.55;7.05;;;;;;;27.59;53.80;96354.47;5035570;28;20021;-31
2023/06/30 00:53:00;;;;;;;9.32;6.47;;;;;;;27.61;54.12;96361.00;5040149;28;20017;-30
2023/06/30 00:55:26;;;;;;;10.13;6.90;;;;;;;27.45;54.23;96359.31;5036552;28;20104;-30
2023/06/30 00:57:52;;;;;;;9.13;6.70;;;;;;;27.47;54.65;96365.84;5034801;28;20025;-31
2023/06/30 01:00:18;;;;;;;7.95;6.40;;;;;;;27.51;54.36;96362.75;5034667;28;20026;-30
2023/06/30 01:02:54;;;;;;;7.40;6.40;;;;;;;27.46;53.94;96364.34;5035100;28;20064;-30
2023/06/30 01:05:25;;;;;;;10.38;6.07;;;;;;;27.40;53.83;96366.53;5034419;28;20467;-31
2023/06/30 01:08:00;;;;;;;8.35;6.05;;;;;;;27.61;53.23;96365.84;5035570;28;20098;-30
2023/06/30 01:10:28;;;;;;;9.45;6.15;;;;;;;27.46;53.43;96361.56;5034437;28;20040;-30
2023/06/30 01:12:55;;;;;;;8.93;6.05;;;;;;;27.62;52.92;96362.50;5034346;28;20025;-30
2023/06/30 01:15:22;;;;;;;7.38;6.30;;;;;;;27.52;53.15;96353.09;5046926;28;20017;-30
2023/06/30 01:17:59;;;;;;;10.05;6.68;;;;;;;27.58;52.51;96356.53;5036493;28;20025;-30
2023/06/30 01:20:30;;;;;;;12.75;6.57;;;;;;;27.74;52.50;96351.84;5041348;28;20040;-30
2023/06/30 01:23:10;;;;;;;8.25;6.18;;;;;;;27.66;53.06;96348.25;5032963;28;20026;-31
2023/06/30 01:25:36;;;;;;;9.35;6.38;;;;;;;27.54;53.54;96351.28;5034240;28;20025;-31
2023/06/30 01:28:02;;;;;;;8.48;6.38;;;;;;;27.68;53.22;96348.47;5033985;28;20406;-30
2023/06/30 01:30:31;;;;;;;11.32;6.43;;;;;;;27.49;53.85;96343.78;5034246;28;20029;-30
2023/06/30 01:32:58;;;;;;;11.27;7.00;;;;;;;27.67;53.73;96350.50;5041180;28;20025;-30
2023/06/30 01:35:25;;;;;;;11.73;6.75;;;;;;;27.81;52.88;96340.03;5041354;28;20029;-30
2023/06/30 01:37:52;;;;;;;10.65;6.88;;;;;;;27.45;53.71;96342.63;5033617;28;20467;-31
2023/06/30 01:40:17;;;;;;;8.68;6.80;;;;;;;27.73;53.18;96345.53;5034356;28;20025;-30
2023/06/30 01:42:44;;;;;;;11.10;6.75;;;;;;;27.62;53.26;96342.25;5033822;28;20045;-30
2023/06/30 01:45:11;;;;;;;10.48;6.85;;;;;;;27.74;53.18;96329.56;5033677;28;20025;-30
2023/06/30 01:47:36;;;;;;;8.60;6.80;;;;;;;27.66;53.44;96328.75;5041042;28;20547;-30
2023/06/30 01:50:03;;;;;;;11.82;6.72;;;;;;;27.53;53.48;96338.63;5034190;28;20017;-30
2023/06/30 01:52:28;;;;;;;10.15;7.20;;;;;;;27.58;53.44;96339.06;5032595;28;20548;-30
2023/06/30 01:54:54;;;;;;;10.30;6.43;;;;;;;27.29;54.18;96325.03;5034032;28;20025;-30
2023/06/30 01:57:19;;;;;;;13.00;6.63;;;;;;;27.53;53.24;96333.06;5033617;28;20022;-30
2023/06/30 01:59:47;;;;;;;10.38;6.22;;;;;;;27.68;53.10;96334.53;5034039;28;20017;-33
2023/06/30 02:02:12;;;;;;;11.57;6.40;;;;;;;27.70;52.91;96326.34;5033796;28;20056;-33
2023/06/30 02:04:37;;;;;;;8.73;6.53;;;;;;;27.65;53.10;96322.44;5033267;28;20056;-31
2023/06/30 02:07:03;;;;;;;10.05;6.45;;;;;;;27.54;53.69;96317.84;5033441;28;20025;-30
2023/06/30 02:09:29;;;;;;;8.90;6.45;;;;;;;27.67;53.14;96321.88;5033512;28;20046;-30
2023/06/30 02:11:55;;;;;;;8.75;6.70;;;;;;;27.77;52.69;96317.34;5033584;28;20067;-30
2023/06/30 02:14:20;;;;;;;9.32;6.53;;;;;;;27.71;53.05;96319.50;5033298;28;20113;-30
2023/06/30 02:16:45;;;;;;;9.88;6.82;;;;;;;27.62;53.29;96317.19;5033517;28;20021;-32
2023/06/30 02:19:11;;;;;;;10.07;6.80;;;;;;;27.45;54.07;96306.41;5033438;28;20021;-30
2023/06/30 02:21:36;;;;;;;11.68;7.13;;;;;;;27.56;53.84;96308.22;5033097;28;20057;-30
2023/06/30 02:24:02;;;;;;;10.90;6.90;;;;;;;27.63;54.07;96316.66;5033096;28;20025;-32
2023/06/30 02:26:27;;;;;;;9.57;6.90;;;;;;;27.64;53.63;96309.78;5033333;28;20032;-30
2023/06/30 02:28:53;;;;;;;8.40;6.53;;;;;;;27.35;54.46;96310.97;5033563;28;20392;-30
2023/06/30 02:31:18;;;;;;;11.13;7.13;;;;;;;27.41;54.55;96301.19;5033329;28;20463;-30
2023/06/30 02:33:43;;;;;;;10.23;6.82;;;;;;;27.56;53.71;96297.84;5033644;28;20025;-30
2023/06/30 02:36:09;;;;;;;8.40;6.88;;;;;;;27.51;53.87;96295.91;5033433;28;20013;-30
2023/06/30 02:38:34;;;;;;;9.90;7.07;;;;;;;27.49;53.91;96292.91;5033372;28;20032;-30
2023/06/30 02:41:00;;;;;;;8.63;6.90;;;;;;;27.52;53.07;96275.88;5033275;28;20050;-30
2023/06/30 02:43:25;;;;;;;7.68;6.35;;;;;;;27.56;53.15;96288.72;5033705;28;20052;-30
2023/06/30 02:45:51;;;;;;;9.73;6.43;;;;;;;27.51;52.63;96291.06;5033502;28;20014;-31
2023/06/30 02:48:16;;;;;;;10.38;6.20;;;;;;;27.57;52.41;96276.31;5033480;28;20021;-31
2023/06/30 02:50:42;;;;;;;8.30;5.88;;;;;;;27.54;51.88;96280.88;5037481;28;20025;-30
2023/06/30 02:53:07;;;;;;;9.50;6.80;;;;;;;27.54;52.10;96284.44;5037063;28;20021;-31
2023/06/30 02:55:33;;;;;;;8.80;6.95;;;;;;;27.50;51.52;96299.97;5037074;28;20013;-31
2023/06/30 02:57:58;;;;;;;9.23;6.85;;;;;;;27.40;51.24;96301.75;5037139;28;20027;-30
2023/06/30 03:00:24;;;;;;;12.10;7.43;;;;;;;27.36;51.88;96301.31;5037095;28;20019;-30
2023/06/30 03:02:49;;;;;;;9.73;7.15;;;;;;;27.26;52.51;96303.81;5036842;28;20025;-30
2023/06/30 03:05:15;;;;;;;9.30;7.07;;;;;;;27.25;52.90;96302.31;5036910;28;20104;-30
2023/06/30 03:07:40;;;;;;;9.68;7.10;;;;;;;27.26;52.72;96305.84;5037220;28;20029;-30
2023/06/30 03:10:06;;;;;;;10.75;7.07;;;;;;;27.36;52.68;96304.84;5036577;28;20446;-31
2023/06/30 03:12:32;;;;;;;9.70;6.80;;;;;;;27.47;51.93;96292.69;5042912;28;20022;-30
2023/06/30 03:14:57;;;;;;;11.90;6.93;;;;;;;27.56;51.13;96294.31;5044015;28;20017;-31
2023/06/30 03:17:23;;;;;;;12.90;7.25;;;;;;;27.36;51.45;96288.13;5036556;28;20057;-30
2023/06/30 03:19:48;;;;;;;6.85;5.85;;;;;;;27.43;51.75;96298.63;5036521;28;20036;-30
2023/06/30 03:22:13;;;;;;;11.52;6.53;;;;;;;27.34;52.23;96293.50;5036631;28;20021;-30
2023/06/30 03:24:40;;;;;;;9.50;6.60;;;;;;;27.21;52.69;96298.38;5042534;28;20032;-30
2023/06/30 03:27:06;;;;;;;7.97;6.75;;;;;;;27.16;52.55;96300.00;5038738;28;20036;-30
2023/06/30 03:29:31;;;;;;;7.03;6.28;;;;;;;27.31;52.65;96294.59;5042455;28;20021;-31
2023/06/30 03:31:57;;;;;;;10.77;6.88;;;;;;;27.21;52.73;96290.75;5036342;28;20352;-31
2023/06/30 03:34:22;;;;;;;11.25;6.50;;;;;;;27.09;53.64;96290.28;5036688;28;20024;-31
2023/06/30 03:36:49;;;;;;;10.65;6.63;;;;;;;27.26;52.79;96292.69;5034946;28;20029;-30
2023/06/30 03:39:14;;;;;;;8.05;6.30;;;;;;;27.17;53.18;96287.59;5036074;28;20044;-30
2023/06/30 03:41:40;;;;;;;10.05;7.00;;;;;;;27.13;52.61;96301.09;5036156;28;20499;-31
2023/06/30 03:44:05;;;;;;;8.93;6.80;;;;;;;27.21;52.76;96290.00;5036215;28;20017;-30
2023/06/30 03:46:31;;;;;;;11.82;7.18;;;;;;;27.07;53.26;96294.91;5036030;28;20047;-30
2023/06/30 03:48:57;;;;;;;11.18;6.57;;;;;;;27.27;52.91;96290.66;5035767;28;20398;-31
2023/06/30 03:51:22;;;;;;;9.63;6.57;;;;;;;27.05;52.96;96286.34;5036086;28;20028;-30
2023/06/30 03:53:48;;;;;;;8.35;6.10;;;;;;;27.16;52.94;96288.88;5036422;28;20029;-30
2023/06/30 03:56:13;;;;;;;10.15;6.85;;;;;;;27.20;53.01;96283.69;5035945;28;20062;-31
2023/06/30 03:58:39;;;;;;;8.95;6.78;;;;;;;27.02;53.16;96282.59;5036112;28;20029;-30
2023/06/30 04:01:06;;;;;;;10.60;7.57;;;;;;;27.09;52.82;96292.31;5035516;28;20030;-30
2023/06/30 04:03:31;;;;;;;8.77;7.65;;;;;;;27.25;52.65;96290.44;5036399;28;20112;-30
2023/06/30 04:05:57;;;;;;;9.80;6.55;;;;;;;27.18;52.84;96286.31;5035545;28;20108;-30
2023/06/30 04:08:22;;;;;;;10.02;7.20;;;;;;;27.07;53.35;96287.31;5036059;28;20021;-30
2023/06/30 04:10:48;;;;;;;12.15;7.03;;;;;;;27.30;52.80;96293.09;5035830;28;20021;-30
2023/06/30 04:13:13;;;;;;;12.00;7.53;;;;;;;27.16;53.04;96288.88;5035490;28;20024;-30
2023/06/30 04:15:39;;;;;;;9.40;6.78;;;;;;;27.23;52.83;96287.44;5035381;28;20029;-30
2023/06/30 04:18:04;;;;;;;9.40;7.72;;;;;;;27.12;52.85;96283.63;5035469;28;20104;-30
2023/06/30 04:20:30;;;;;;;10.32;6.75;;;;;;;27.20;52.87;96282.97;5035542;28;20026;-30
2023/06/30 04:22:55;;;;;;;11.30;7.82;;;;;;;27.00;52.94;96279.59;5035965;28;20041;-30
2023/06/30 04:25:21;;;;;;;11.27;6.80;;;;;;;27.09;52.95;96275.59;5035104;28;20021;-31
2023/06/30 04:27:46;;;;;;;9.93;6.97;;;;;;;27.38;52.15;96288.34;5035243;28;20116;-30
2023/06/30 04:30:13;;;;;;;14.45;6.80;;;;;;;27.23;52.73;96281.88;5035485;28;20025;-30
2023/06/30 04:32:39;;;;;;;9.15;7.18;;;;;;;27.20;53.15;96274.63;5035774;28;20029;-30
2023/06/30 04:35:05;;;;;;;9.98;7.05;;;;;;;27.30;52.98;96270.84;5035669;28;20024;-31
2023/06/30 04:37:30;;;;;;;9.18;6.82;;;;;;;27.32;52.56;96276.63;5035343;28;20029;-31
2023/06/30 04:39:57;;;;;;;9.98;6.90;;;;;;;27.44;52.42;96272.28;5035030;28;20032;-30
2023/06/30 04:42:23;;;;;;;10.50;7.32;;;;;;;27.42;52.59;96274.84;5035076;28;20092;-30
2023/06/30 04:44:48;;;;;;;10.05;6.97;;;;;;;27.41;52.64;96276.13;5034938;28;20017;-30
2023/06/30 04:47:16;;;;;;;10.60;7.50;;;;;;;27.42;52.72;96274.84;5035558;28;20031;-30
2023/06/30 04:49:42;;;;;;;9.45;6.38;;;;;;;27.34;52.88;96284.41;5035134;28;20451;-30
2023/06/30 04:52:08;;;;;;;13.40;7.32;;;;;;;27.43;52.87;96283.94;5034839;28;20176;-30
2023/06/30 04:54:33;;;;;;;8.98;6.72;;;;;;;27.46;52.94;96283.59;5035141;28;20127;-31
2023/06/30 04:56:59;;;;;;;9.52;7.00;;;;;;;27.49;52.56;96271.38;5034818;28;20021;-30
2023/06/30 04:59:24;;;;;;;9.68;6.80;;;;;;;27.37;52.78;96263.81;5034895;28;20119;-30
2023/06/30 05:01:49;;;;;;;10.73;6.75;;;;;;;27.26;53.31;96275.22;5034363;28;20104;-30
2023/06/30 05:04:16;;;;;;;12.77;6.93;;;;;;;27.31;53.42;96272.34;5042000;28;20068;-30
2023/06/30 05:06:41;;;;;;;8.88;6.85;;;;;;;26.97;54.06;96268.78;5035024;28;20442;-30
2023/06/30 05:09:07;;;;;;;9.20;7.55;;;;;;;27.23;53.24;96279.84;5034306;28;20021;-30
2023/06/30 05:11:32;;;;;;;8.52;6.95;;;;;;;27.28;52.98;96273.41;5033891;28;20029;-30
2023/06/30 05:13:58;;;;;;;8.55;6.65;;;;;;;27.29;52.65;96263.75;5034291;28;20056;-31
2023/06/30 05:16:23;;;;;;;8.70;6.90;;;;;;;27.34;53.10;96264.91;5034723;28;20028;-31
2023/06/30 05:18:48;;;;;;;11.90;7.35;;;;;;;27.65;51.94;96255.56;5034356;28;20048;-30
2023/06/30 05:21:14;;;;;;;10.07;7.30;;;;;;;27.52;52.60;96258.41;5041534;28;20026;-30
2023/06/30 05:23:39;;;;;;;10.35;6.97;;;;;;;27.46;52.61;96263.34;5034150;28;20036;-31
2023/06/30 05:26:06;;;;;;;9.35;6.97;;;;;;;27.33;53.14;96264.16;5034302;28;20463;-30
2023/06/30 05:28:31;;;;;;;11.23;7.40;;;;;;;27.43;52.77;96273.56;5034180;28;20414;-30
2023/06/30 05:30:57;;;;;;;10.68;7.10;;;;;;;27.29;53.07;96260.97;5041186;28;20021;-31
2023/06/30 05:33:22;;;;;;;10.00;6.90;;;;;;;27.38;52.39;96260.50;5041015;28;20024;-30
2023/06/30 05:35:48;;;;;;;9.98;7.30;;;;;;;27.35;52.64;96267.16;5034081;28;20025;-30
2023/06/30 05:38:13;;;;;;;9.35;6.70;;;;;;;27.31;53.12;96261.19;5034012;28;20056;-30
2023/06/30 05:40:39;;;;;;;9.30;7.50;;;;;;;27.35;52.83;96266.41;5033598;28;20017;-31
2023/06/30 05:43:04;;;;;;;12.95;7.50;;;;;;;27.27;53.14;96268.38;5040785;28;20048;-31
2023/06/30 05:45:29;;;;;;;11.60;7.40;;;;;;;27.22;53.12;96274.81;5034288;28;20091;-30
2023/06/30 05:47:56;;;;;;;9.68;6.55;;;;;;;27.28;52.84;96273.41;5033781;28;20463;-31
2023/06/30 05:50:23;;;;;;;8.73;6.97;;;;;;;27.45;52.72;96268.16;5033760;28;20025;-31
2023/06/30 05:52:49;;;;;;;13.18;7.25;;;;;;;27.23;53.38;96270.75;5033783;28;20021;-30
2023/06/30 05:55:14;;;;;;;10.10;7.22;;;;;;;27.23;53.22;96271.50;5033778;28;20067;-30
2023/06/30 05:57:40;;;;;;;10.05;7.20;;;;;;;27.28;52.93;96272.66;5034092;28;20032;-30
2023/06/30 06:00:07;;;;;;;9.95;7.10;;;;;;;27.24;52.20;96277.81;5033905;28;20021;-31
2023/06/30 06:02:34;;;;;;;10.90;7.18;;;;;;;27.34;51.45;96281.63;5033660;28;20017;-30
2023/06/30 06:04:59;;;;;;;9.57;7.25;;;;;;;27.40;51.24;96285.78;5033632;28;20025;-30
2023/06/30 06:07:25;;;;;;;10.15;6.55;;;;;;;27.32;51.51;96287.75;5033751;28;20013;-30
2023/06/30 06:09:51;;;;;;;12.15;7.03;;;;;;;27.28;51.33;96281.00;5033694;28;20426;-30
2023/06/30 06:12:16;;;;;;;9.02;6.38;;;;;;;27.47;50.66;96287.13;5033637;28;20117;-30
2023/06/30 06:14:42;;;;;;;10.48;7.38;;;;;;;27.27;51.41;96299.75;5033900;28;20507;-30
2023/06/30 06:17:07;;;;;;;10.02;6.28;;;;;;;27.12;52.12;96305.16;5033258;28;20021;-30
2023/06/30 06:19:33;;;;;;;11.10;6.75;;;;;;;27.16;51.57;96300.00;5033482;28;20052;-30
2023/06/30 06:21:58;;;;;;;8.50;6.45;;;;;;;27.25;51.27;96304.38;5033804;28;20025;-30
2023/06/30 06:24:24;;;;;;;9.05;6.30;;;;;;;27.22;51.44;96308.97;5033331;28;20026;-31
2023/06/30 06:26:49;;;;;;;9.20;6.32;;;;;;;27.11;52.02;96309.22;5033453;28;20025;-31
2023/06/30 06:29:21;;;;;;;10.73;5.97;;;;;;;27.17;52.02;96312.66;5033504;28;20020;-30
2023/06/30 06:31:48;;;;;;;7.93;6.15;;;;;;;27.30;51.50;96320.94;5033008;28;20490;-30
2023/06/30 06:34:14;;;;;;;7.55;6.25;;;;;;;27.12;51.95;96324.63;5033908;28;20025;-32
2023/06/30 06:36:39;;;;;;;9.98;5.93;;;;;;;27.26;51.67;96320.53;5033106;28;20371;-30
2023/06/30 06:39:05;;;;;;;9.18;6.55;;;;;;;27.30;51.27;96329.31;5033584;28;20024;-30
2023/06/30 06:41:31;;;;;;;8.20;6.05;;;;;;;27.28;51.10;96317.97;5046445;28;20037;-30
2023/06/30 06:43:56;;;;;;;8.73;6.50;;;;;;;27.33;50.99;96339.34;5033125;28;20489;-30
2023/06/30 06:46:22;;;;;;;8.73;6.18;;;;;;;27.24;51.02;96344.63;5033029;28;20018;-30
2023/06/30 06:48:47;;;;;;;8.85;5.93;;;;;;;27.25;50.63;96338.53;5033390;28;20021;-30
2023/06/30 06:51:13;;;;;;;8.50;5.80;;;;;;;27.31;50.83;96344.72;5042284;28;20022;-30
2023/06/30 06:53:38;;;;;;;9.07;6.13;;;;;;;27.30;51.01;96350.84;5033378;28;20048;-30
2023/06/30 06:56:05;;;;;;;10.00;6.45;;;;;;;27.33;50.60;96342.13;5033348;28;20018;-30
2023/06/30 06:58:35;;;;;;;10.45;6.32;;;;;;;27.21;50.64;96346.44;5033232;28;20109;-30
2023/06/30 07:01:01;;;;;;;9.85;6.32;;;;;;;27.18;50.42;96341.97;5033160;28;20025;-31
2023/06/30 07:03:26;;;;;;;8.27;5.80;;;;;;;27.31;50.60;96330.81;5033177;28;20145;-30
2023/06/30 07:05:52;;;;;;;10.10;5.95;;;;;;;27.36;50.67;96341.06;5039268;28;20021;-30
2023/06/30 07:08:19;;;;;;;9.38;6.07;;;;;;;27.40;50.24;96333.13;5033347;28;20024;-30
2023/06/30 07:10:45;;;;;;;9.32;6.15;;;;;;;27.40;50.31;96332.38;5032789;28;20092;-30
2023/06/30 07:13:12;;;;;;;7.97;5.82;;;;;;;27.35;50.31;96338.81;5033227;28;20422;-30
2023/06/30 07:15:37;;;;;;;7.90;5.85;;;;;;;27.37;49.88;96336.97;5032897;28;20022;-31
2023/06/30 07:18:03;;;;;;;8.13;6.00;;;;;;;27.27;49.74;96329.63;5033117;28;20040;-32
2023/06/30 07:20:29;;;;;;;9.40;6.03;;;;;;;27.26;49.98;96323.31;5032932;28;20017;-31
2023/06/30 07:22:56;;;;;;;6.70;5.68;;;;;;;27.47;49.50;96331.69;5032961;28;20382;-30
2023/06/30 07:25:22;;;;;;;9.93;5.93;;;;;;;27.43;50.25;96339.66;5032692;28;20475;-30
2023/06/30 07:27:53;;;;;;;7.65;6.50;;;;;;;27.37;49.95;96342.56;5032532;28;20072;-30
2023/06/30 07:30:20;;;;;;;9.25;5.72;;;;;;;27.34;49.80;96335.28;5040078;28;20038;-30
2023/06/30 07:32:46;;;;;;;7.10;5.80;;;;;;;27.43;49.05;96323.69;5033262;28;20026;-30
2023/06/30 07:35:11;;;;;;;9.80;5.90;;;;;;;27.44;49.29;96335.56;5034698;28;20108;-30
2023/06/30 07:37:37;;;;;;;8.93;5.93;;;;;;;27.51;48.59;96335.66;5040399;28;20029;-30
2023/06/30 07:40:03;;;;;;;7.05;5.72;;;;;;;27.64;49.04;96334.13;5039513;28;20032;-30
2023/06/30 07:42:28;;;;;;;7.00;5.45;;;;;;;27.63;48.66;96329.84;5036783;28;20056;-30
2023/06/30 07:44:53;;;;;;;8.85;6.00;;;;;;;27.61;48.02;96337.97;5036013;28;20526;-30
2023/06/30 07:47:19;;;;;;;8.35;5.65;;;;;;;27.53;48.39;96326.75;5036323;28;20378;-30
2023/06/30 07:49:44;;;;;;;9.90;5.75;;;;;;;27.48;47.47;96325.56;5042854;28;20368;-31
2023/06/30 07:52:10;;;;;;;9.15;5.70;;;;;;;27.61;47.28;96329.63;5043640;28;20025;-30
2023/06/30 07:54:36;;;;;;;6.90;5.05;;;;;;;27.81;47.20;96323.31;5034801;28;20041;-30
2023/06/30 07:57:01;;;;;;;7.72;5.50;;;;;;;27.54;47.73;96328.25;5035546;28;20064;-30
2023/06/30 07:59:27;;;;;;;7.30;5.22;;;;;;;27.86;46.89;96330.78;5035827;28;20022;-30
2023/06/30 08:01:52;;;;;;;8.70;5.10;;;;;;;27.77;47.18;96331.25;5042916;28;20422;-30
2023/06/30 08:04:18;;;;;;;7.30;5.00;;;;;;;27.95;47.26;96338.66;5035750;28;20033;-30
2023/06/30 08:06:44;;;;;;;7.93;5.25;;;;;;;27.79;47.76;96342.63;5035851;28;20055;-30
2023/06/30 08:09:10;;;;;;;5.82;5.15;;;;;;;27.88;47.76;96351.25;5035849;28;20021;-31
2023/06/30 08:11:36;;;;;;;7.28;5.75;;;;;;;28.03;47.57;96342.25;5035654;28;20051;-30
2023/06/30 08:14:02;;;;;;;11.60;5.65;;;;;;;28.00;47.66;96345.38;5036028;28;20021;-30
2023/06/30 08:16:27;;;;;;;9.60;5.82;;;;;;;28.00;47.76;96362.13;5035548;28;20037;-30
2023/06/30 08:18:53;;;;;;;8.10;5.65;;;;;;;28.02;47.86;96354.72;5035818;28;20052;-30
2023/06/30 08:21:19;;;;;;;6.43;5.32;;;;;;;27.94;47.72;96362.28;5035367;28;20023;-30
2023/06/30 08:23:44;;;;;;;8.15;5.93;;;;;;;27.82;48.15;96356.19;5035348;28;20025;-30
2023/06/30 08:26:09;;;;;;;7.40;5.65;;;;;;;27.80;48.24;96361.59;5035172;28;20572;-30
2023/06/30 08:28:35;;;;;;;8.35;6.30;;;;;;;28.03;47.85;96358.25;5035133;28;20026;-30
2023/06/30 08:31:00;;;;;;;9.40;5.45;;;;;;;27.94;48.10;96351.13;5035649;28;20028;-30
2023/06/30 08:33:28;;;;;;;6.65;5.90;;;;;;;28.02;48.44;96343.56;5035939;28;20056;-30
2023/06/30 08:35:53;;;;;;;6.35;5.68;;;;;;;28.07;48.38;96348.22;5035069;28;20471;-30
2023/06/30 08:38:19;;;;;;;9.30;5.88;;;;;;;28.20;48.35;96339.81;5035278;28;20036;-30
2023/06/30 08:40:45;;;;;;;8.45;6.15;;;;;;;28.16;48.54;96347.75;5034679;28;20017;-30
2023/06/30 08:43:11;;;;;;;8.55;5.80;;;;;;;28.02;49.07;96346.34;5035319;28;20455;-30
2023/06/30 08:45:39;;;;;;;8.60;5.70;;;;;;;27.99;49.14;96353.00;5034362;28;20022;-32
2023/06/30 08:48:05;;;;;;;7.57;5.72;;;;;;;28.12;48.92;96336.19;5034817;28;20035;-30
2023/06/30 08:50:34;;;;;;;7.20;6.32;;;;;;;27.99;49.53;96338.31;5034748;28;20033;-30
2023/06/30 08:53:00;;;;;;;7.05;5.68;;;;;;;28.11;49.20;96336.72;5034735;28;20033;-30
2023/06/30 08:55:26;;;;;;;11.45;6.30;;;;;;;28.13;49.19;96343.25;5033495;28;20035;-30
2023/06/30 08:57:56;;;;;;;8.27;6.20;;;;;;;28.20;48.77;96347.41;5035048;28;20028;-30
2023/06/30 09:00:24;;;;;;;8.32;6.22;;;;;;;28.36;48.51;96337.13;5035076;28;20029;-30
2023/06/30 09:02:50;;;;;;;7.65;5.82;;;;;;;28.41;48.51;96348.16;5035253;28;20051;-30
2023/06/30 09:05:16;;;;;;;8.82;6.22;;;;;;;28.19;49.28;96346.66;5034407;28;20383;-30
2023/06/30 09:08:03;;;;;;;9.15;6.05;;;;;;;28.30;49.21;96342.88;5034520;28;20025;-31
2023/06/30 09:10:36;;;;;;;10.30;6.50;;;;;;;28.35;49.29;96346.78;5032934;28;20385;-31
2023/06/30 09:13:03;;;;;;;12.07;6.82;;;;;;;28.10;50.14;96349.19;5042022;28;20060;-30
2023/06/30 09:15:30;;;;;;;10.27;6.75;;;;;;;28.28;49.74;96359.41;5034806;28;20025;-31
2023/06/30 09:17:55;;;;;;;8.80;7.05;;;;;;;28.23;49.58;96330.34;5034732;28;20041;-30
2023/06/30 09:20:21;;;;;;;7.85;6.80;;;;;;;28.18;49.79;96338.88;5034087;28;20033;-30
2023/06/30 09:22:47;;;;;;;8.73;6.70;;;;;;;28.21;49.44;96344.09;5034337;28;20035;-30
2023/06/30 09:25:25;;;;;;;11.95;6.65;;;;;;;28.18;49.71;96348.00;5041444;28;20017;-30
2023/06/30 09:27:50;;;;;;;9.82;6.97;;;;;;;28.35;49.21;96336.38;5034286;28;20026;-30
2023/06/30 09:30:16;;;;;;;9.68;6.68;;;;;;;28.41;49.10;96341.81;5041854;28;20027;-30
2023/06/30 09:32:42;;;;;;;8.55;6.90;;;;;;;28.31;49.83;96335.25;5034223;28;20025;-30
2023/06/30 09:35:08;;;;;;;8.68;7.07;;;;;;;28.26;50.43;96331.31;5034269;28;20108;-30
2023/06/30 09:37:44;;;;;;;9.23;7.05;;;;;;;28.39;50.72;96331.22;5034078;28;20084;-30
2023/06/30 09:40:16;;;;;;;8.23;6.75;;;;;;;28.38;50.87;96329.72;5034304;28;20025;-30
2023/06/30 09:42:44;;;;;;;11.23;7.67;;;;;;;28.16;51.80;96313.56;5037714;28;20069;-31
2023/06/30 09:45:12;;;;;;;11.45;7.85;;;;;;;28.35;51.46;96313.31;5036754;28;20348;-30
2023/06/30 09:47:37;;;;;;;11.65;7.95;;;;;;;28.39;51.33;96308.16;5033835;28;20021;-31
2023/06/30 09:50:06;;;;;;;11.02;7.78;;;;;;;28.65;50.28;96313.50;5033878;28;20021;-30
2023/06/30 09:52:36;;;;;;;9.52;7.20;;;;;;;28.55;51.37;96318.09;5033660;28;20109;-30
2023/06/30 09:55:13;;;;;;;11.15;7.53;;;;;;;28.41;51.54;96305.56;5033799;28;20455;-30
2023/06/30 09:57:43;;;;;;;12.90;8.00;;;;;;;28.30;52.09;96305.88;5040586;28;20115;-30
2023/06/30 10:00:19;;;;;;;10.35;7.72;;;;;;;28.43;51.54;96308.56;5034217;28;20021;-31
2023/06/30 10:02:45;;;;;;;9.73;7.80;;;;;;;28.36;51.96;96301.63;5033795;28;20880;-30
2023/06/30 10:05:11;;;;;;;9.23;7.20;;;;;;;28.42;51.20;96305.00;5033737;28;20021;-30
2023/06/30 10:07:39;;;;;;;9.52;7.90;;;;;;;28.42;51.40;96295.91;5033609;28;20040;-30
2023/06/30 10:10:09;;;;;;;12.50;7.88;;;;;;;28.46;51.44;96299.81;5041105;28;20014;-31
2023/06/30 10:12:37;;;;;;;10.43;7.90;;;;;;;28.44;51.65;96299.59;5033655;28;20075;-26
2023/06/30 10:15:05;;;;;;;8.95;7.38;;;;;;;28.38;51.70;96292.69;5041659;28;20100;-27
2023/06/30 10:17:31;;;;;;;11.23;7.55;;;;;;;28.55;51.31;96287.41;5033411;28;20026;-27
2023/06/30 10:20:00;;;;;;;12.63;7.05;;;;;;;28.42;51.86;96291.06;5046998;28;20112;-26
2023/06/30 10:22:26;;;;;;;10.88;7.90;;;;;;;28.43;51.39;96289.03;5033778;28;20021;-26
2023/06/30 10:24:51;;;;;;;10.20;7.65;;;;;;;28.46;50.89;96277.50;5044501;28;20112;-25
2023/06/30 10:27:19;;;;;;;11.85;7.18;;;;;;;28.48;50.68;96286.06;5033457;28;20017;-26
2023/06/30 10:29:46;;;;;;;10.70;7.18;;;;;;;28.56;50.55;96288.91;5033371;28;20032;-26
2023/06/30 10:32:11;;;;;;;11.23;7.20;;;;;;;28.41;51.16;96286.78;5033160;28;20025;-27
2023/06/30 10:34:38;;;;;;;10.30;7.45;;;;;;;28.44;51.00;96282.13;5033160;28;20071;-26
2023/06/30 10:37:03;;;;;;;11.57;8.00;;;;;;;28.34;50.67;96281.88;5033734;28;20090;-26
2023/06/30 10:39:30;;;;;;;10.98;6.90;;;;;;;28.34;50.63;96278.34;5033360;28;20476;-26
2023/06/30 10:41:59;;;;;;;9.55;7.43;;;;;;;28.41;50.32;96261.69;5033330;28;20049;-26
2023/06/30 10:44:38;;;;;;;10.00;7.38;;;;;;;28.30;50.27;96267.56;5033089;28;20064;-26
2023/06/30 10:47:03;;;;;;;12.90;7.15;;;;;;;28.32;49.98;96256.59;5033294;28;20462;-26
2023/06/30 10:49:34;;;;;;;9.23;6.88;;;;;;;28.39;49.56;96264.25;5033505;28;20040;-26
2023/06/30 10:52:06;;;;;;;12.40;7.10;;;;;;;28.50;49.47;96261.16;5033332;28;20014;-26
2023/06/30 10:54:39;;;;;;;10.07;7.32;;;;;;;28.51;49.09;96264.69;5033459;28;20029;-26
2023/06/30 10:57:10;;;;;;;10.63;6.82;;;;;;;28.45;49.12;96259.25;5033119;28;20032;-26
2023/06/30 10:59:37;;;;;;;10.07;6.93;;;;;;;28.33;49.08;96254.53;5033179;28;20363;-27
2023/06/30 11:02:18;;;;;;;9.23;6.68;;;;;;;28.53;48.41;96259.31;5033059;28;20022;-26
2023/06/30 11:04:45;;;;;;;11.57;6.82;;;;;;;28.58;48.47;96261.94;5033364;28;20033;-26
2023/06/30 11:07:26;;;;;;;10.40;7.05;;;;;;;28.52;48.59;96260.59;5033000;28;20021;-26
2023/06/30 11:09:52;;;;;;;8.30;6.80;;;;;;;28.62;48.53;96258.78;5035452;28;20020;-27
2023/06/30 11:12:19;;;;;;;8.77;6.78;;;;;;;28.45;48.89;96267.63;5037015;28;20079;-28
2023/06/30 11:14:56;;;;;;;9.05;6.22;;;;;;;28.42;49.03;96251.28;5037286;28;20024;-26
2023/06/30 11:17:50;;;;;;;10.77;7.07;;;;;;;28.54;48.77;96249.66;5035553;28;20486;-26
2023/06/30 11:20:16;;;;;;;11.43;6.72;;;;;;;28.43;48.83;96255.56;5036589;28;20100;-26
2023/06/30 11:22:55;;;;;;;12.80;7.70;;;;;;;28.67;48.05;96238.34;5037054;28;20514;-26
2023/06/30 11:25:20;;;;;;;12.52;7.50;;;;;;;28.56;48.50;96233.09;5035179;28;20480;-27
2023/06/30 11:27:46;;;;;;;9.63;6.93;;;;;;;28.53;48.40;96228.63;5036417;28;20044;-27